sensor_id;sensor_type;location;lat;lon;timestamp;temperature;humidity
5868;DHT22;2960;49.142;7.768;2024-03-22T00:01:52;13.00;57.80
5868;DHT22;2960;49.142;7.768;2024-03-22T00:04:22;13.00;57.90
5868;DHT22;2960;49.142;7.768;2024-03-22T00:06:49;13.00;57.90
5868;DHT22;2960;49.142;7.768;2024-03-22T00:09:16;12.90;57.90
5868;DHT22;2960;49.142;7.768;2024-03-22T00:11:44;12.90;57.90
5868;DHT22;2960;49.142;7.768;2024-03-22T00:14:11;12.90;58.00
5868;DHT22;2960;49.142;7.768;2024-03-22T00:16:39;12.80;57.90
5868;DHT22;2960;49.142;7.768;2024-03-22T00:19:05;12.90;58.10
5868;DHT22;2960;49.142;7.768;2024-03-22T00:21:34;12.80;58.10
5868;DHT22;2960;49.142;7.768;2024-03-22T00:24:00;12.80;58.10
5868;DHT22;2960;49.142;7.768;2024-03-22T00:26:27;12.80;58.10
5868;DHT22;2960;49.142;7.768;2024-03-22T00:28:54;12.80;58.70
5868;DHT22;2960;49.142;7.768;2024-03-22T00:31:23;12.70;58.10
5868;DHT22;2960;49.142;7.768;2024-03-22T00:33:49;12.70;58.20
5868;DHT22;2960;49.142;7.768;2024-03-22T00:36:16;12.70;58.20
5868;DHT22;2960;49.142;7.768;2024-03-22T00:38:44;12.70;58.20
5868;DHT22;2960;49.142;7.768;2024-03-22T00:41:11;12.70;58.30
5868;DHT22;2960;49.142;7.768;2024-03-22T00:43:37;12.60;58.20
5868;DHT22;2960;49.142;7.768;2024-03-22T00:46:04;12.60;58.90
5868;DHT22;2960;49.142;7.768;2024-03-22T00:48:31;12.50;58.30
5868;DHT22;2960;49.142;7.768;2024-03-22T00:50:58;12.50;58.40
5868;DHT22;2960;49.142;7.768;2024-03-22T00:53:24;12.50;58.40
5868;DHT22;2960;49.142;7.768;2024-03-22T00:55:55;12.50;58.40
5868;DHT22;2960;49.142;7.768;2024-03-22T00:58:21;12.40;58.40
5868;DHT22;2960;49.142;7.768;2024-03-22T01:00:48;12.40;58.50
5868;DHT22;2960;49.142;7.768;2024-03-22T01:03:15;12.40;58.50
5868;DHT22;2960;49.142;7.768;2024-03-22T01:05:42;12.30;58.50
5868;DHT22;2960;49.142;7.768;2024-03-22T01:08:08;12.30;58.50
5868;DHT22;2960;49.142;7.768;2024-03-22T01:10:35;12.30;58.60
5868;DHT22;2960;49.142;7.768;2024-03-22T01:13:03;12.20;58.50
5868;DHT22;2960;49.142;7.768;2024-03-22T01:15:30;12.20;58.60
5868;DHT22;2960;49.142;7.768;2024-03-22T01:17:56;12.10;58.60
5868;DHT22;2960;49.142;7.768;2024-03-22T01:20:23;12.10;58.60
5868;DHT22;2960;49.142;7.768;2024-03-22T01:22:49;12.00;58.60
5868;DHT22;2960;49.142;7.768;2024-03-22T01:25:17;12.00;58.70
5868;DHT22;2960;49.142;7.768;2024-03-22T01:27:43;12.00;58.70
5868;DHT22;2960;49.142;7.768;2024-03-22T01:30:12;12.00;58.80
5868;DHT22;2960;49.142;7.768;2024-03-22T01:32:38;11.90;58.80
5868;DHT22;2960;49.142;7.768;2024-03-22T01:35:05;11.90;58.80
5868;DHT22;2960;49.142;7.768;2024-03-22T01:37:32;11.80;58.80
5868;DHT22;2960;49.142;7.768;2024-03-22T01:39:59;11.80;58.90
5868;DHT22;2960;49.142;7.768;2024-03-22T01:42:25;11.80;58.90
5868;DHT22;2960;49.142;7.768;2024-03-22T01:44:53;11.80;58.90
5868;DHT22;2960;49.142;7.768;2024-03-22T01:47:21;11.70;58.90
5868;DHT22;2960;49.142;7.768;2024-03-22T01:49:49;11.70;59.00
5868;DHT22;2960;49.142;7.768;2024-03-22T01:52:16;11.60;58.90
5868;DHT22;2960;49.142;7.768;2024-03-22T01:54:43;11.60;59.00
5868;DHT22;2960;49.142;7.768;2024-03-22T01:57:10;11.60;59.00
5868;DHT22;2960;49.142;7.768;2024-03-22T01:59:37;11.60;59.70
5868;DHT22;2960;49.142;7.768;2024-03-22T02:02:04;11.50;59.00
5868;DHT22;2960;49.142;7.768;2024-03-22T02:04:33;11.50;59.10
5868;DHT22;2960;49.142;7.768;2024-03-22T02:06:59;11.50;59.10
5868;DHT22;2960;49.142;7.768;2024-03-22T02:09:26;11.50;59.20
5868;DHT22;2960;49.142;7.768;2024-03-22T02:11:52;11.50;59.20
5868;DHT22;2960;49.142;7.768;2024-03-22T02:14:20;11.50;59.20
5868;DHT22;2960;49.142;7.768;2024-03-22T02:16:46;11.40;59.20
5868;DHT22;2960;49.142;7.768;2024-03-22T02:19:13;11.40;59.20
5868;DHT22;2960;49.142;7.768;2024-03-22T02:21:41;11.40;59.30
5868;DHT22;2960;49.142;7.768;2024-03-22T02:24:09;11.40;59.30
5868;DHT22;2960;49.142;7.768;2024-03-22T02:26:36;11.40;59.30
5868;DHT22;2960;49.142;7.768;2024-03-22T02:29:03;11.40;59.90
5868;DHT22;2960;49.142;7.768;2024-03-22T02:31:29;11.30;59.30
5868;DHT22;2960;49.142;7.768;2024-03-22T02:33:58;11.30;59.30
5868;DHT22;2960;49.142;7.768;2024-03-22T02:36:24;11.30;59.40
5868;DHT22;2960;49.142;7.768;2024-03-22T02:38:51;11.30;59.40
5868;DHT22;2960;49.142;7.768;2024-03-22T02:41:18;11.30;59.40
5868;DHT22;2960;49.142;7.768;2024-03-22T02:43:45;11.30;60.10
5868;DHT22;2960;49.142;7.768;2024-03-22T02:46:12;11.30;59.50
5868;DHT22;2960;49.142;7.768;2024-03-22T02:48:39;11.30;59.50
5868;DHT22;2960;49.142;7.768;2024-03-22T02:51:05;11.30;59.50
5868;DHT22;2960;49.142;7.768;2024-03-22T02:53:32;11.30;60.20
5868;DHT22;2960;49.142;7.768;2024-03-22T02:56:00;11.20;59.60
5868;DHT22;2960;49.142;7.768;2024-03-22T02:58:28;11.20;59.70
5868;DHT22;2960;49.142;7.768;2024-03-22T03:00:54;11.20;59.70
5868;DHT22;2960;49.142;7.768;2024-03-22T03:03:22;11.20;59.80
5868;DHT22;2960;49.142;7.768;2024-03-22T03:05:48;11.20;59.80
5868;DHT22;2960;49.142;7.768;2024-03-22T03:08:15;11.20;59.80
5868;DHT22;2960;49.142;7.768;2024-03-22T03:10:41;11.20;59.80
5868;DHT22;2960;49.142;7.768;2024-03-22T03:13:09;11.20;59.80
5868;DHT22;2960;49.142;7.768;2024-03-22T03:15:37;11.20;59.90
5868;DHT22;2960;49.142;7.768;2024-03-22T03:18:04;11.20;59.90
5868;DHT22;2960;49.142;7.768;2024-03-22T03:20:30;11.20;60.00
5868;DHT22;2960;49.142;7.768;2024-03-22T03:22:57;11.20;60.00
5868;DHT22;2960;49.142;7.768;2024-03-22T03:25:25;11.10;60.00
5868;DHT22;2960;49.142;7.768;2024-03-22T03:27:52;11.10;60.00
5868;DHT22;2960;49.142;7.768;2024-03-22T03:30:18;11.10;60.10
5868;DHT22;2960;49.142;7.768;2024-03-22T03:32:47;11.10;60.10
5868;DHT22;2960;49.142;7.768;2024-03-22T03:35:13;11.10;60.10
5868;DHT22;2960;49.142;7.768;2024-03-22T03:37:40;11.10;60.20
5868;DHT22;2960;49.142;7.768;2024-03-22T03:40:08;11.10;60.20
5868;DHT22;2960;49.142;7.768;2024-03-22T03:42:35;11.10;60.30
5868;DHT22;2960;49.142;7.768;2024-03-22T03:45:02;11.10;60.40
5868;DHT22;2960;49.142;7.768;2024-03-22T03:47:29;11.10;60.40
5868;DHT22;2960;49.142;7.768;2024-03-22T03:49:57;11.10;60.50
5868;DHT22;2960;49.142;7.768;2024-03-22T03:52:24;11.00;60.40
5868;DHT22;2960;49.142;7.768;2024-03-22T03:54:50;11.10;60.50
5868;DHT22;2960;49.142;7.768;2024-03-22T03:57:18;11.00;60.50
5868;DHT22;2960;49.142;7.768;2024-03-22T03:59:44;11.00;60.50
5868;DHT22;2960;49.142;7.768;2024-03-22T04:02:11;11.00;60.50
5868;DHT22;2960;49.142;7.768;2024-03-22T04:04:37;11.00;60.60
5868;DHT22;2960;49.142;7.768;2024-03-22T04:07:06;11.10;60.70
5868;DHT22;2960;49.142;7.768;2024-03-22T04:09:32;11.10;60.70
5868;DHT22;2960;49.142;7.768;2024-03-22T04:11:59;11.00;61.40
5868;DHT22;2960;49.142;7.768;2024-03-22T04:14:26;11.00;60.80
5868;DHT22;2960;49.142;7.768;2024-03-22T04:16:53;11.00;60.80
5868;DHT22;2960;49.142;7.768;2024-03-22T04:19:20;11.00;60.80
5868;DHT22;2960;49.142;7.768;2024-03-22T04:21:49;11.00;60.90
5868;DHT22;2960;49.142;7.768;2024-03-22T04:24:17;11.00;60.90
5868;DHT22;2960;49.142;7.768;2024-03-22T04:26:44;11.00;60.90
5868;DHT22;2960;49.142;7.768;2024-03-22T04:29:10;11.00;60.90
5868;DHT22;2960;49.142;7.768;2024-03-22T04:31:37;10.90;60.90
5868;DHT22;2960;49.142;7.768;2024-03-22T04:34:03;11.00;61.90
5868;DHT22;2960;49.142;7.768;2024-03-22T04:36:32;10.90;61.00
5868;DHT22;2960;49.142;7.768;2024-03-22T04:38:59;10.90;61.10
5868;DHT22;2960;49.142;7.768;2024-03-22T04:41:27;10.90;61.10
5868;DHT22;2960;49.142;7.768;2024-03-22T04:43:54;10.90;61.10
5868;DHT22;2960;49.142;7.768;2024-03-22T04:46:21;10.90;61.10
5868;DHT22;2960;49.142;7.768;2024-03-22T04:48:47;10.90;61.20
5868;DHT22;2960;49.142;7.768;2024-03-22T04:51:15;10.80;61.20
5868;DHT22;2960;49.142;7.768;2024-03-22T04:53:41;10.80;61.30
5868;DHT22;2960;49.142;7.768;2024-03-22T04:56:09;10.80;61.30
5868;DHT22;2960;49.142;7.768;2024-03-22T04:58:37;10.80;61.30
5868;DHT22;2960;49.142;7.768;2024-03-22T05:01:04;10.70;61.30
5868;DHT22;2960;49.142;7.768;2024-03-22T05:03:30;10.70;61.30
5868;DHT22;2960;49.142;7.768;2024-03-22T05:05:57;10.70;61.40
5868;DHT22;2960;49.142;7.768;2024-03-22T05:08:23;10.70;61.40
5868;DHT22;2960;49.142;7.768;2024-03-22T05:10:51;10.70;61.50
5868;DHT22;2960;49.142;7.768;2024-03-22T05:13:18;10.60;61.50
5868;DHT22;2960;49.142;7.768;2024-03-22T05:15:47;10.60;61.50
5868;DHT22;2960;49.142;7.768;2024-03-22T05:18:13;10.60;61.50
5868;DHT22;2960;49.142;7.768;2024-03-22T05:20:41;10.60;61.60
5868;DHT22;2960;49.142;7.768;2024-03-22T05:23:07;10.50;61.60
5868;DHT22;2960;49.142;7.768;2024-03-22T05:25:34;10.50;61.70
5868;DHT22;2960;49.142;7.768;2024-03-22T05:28:00;10.50;61.80
5868;DHT22;2960;49.142;7.768;2024-03-22T05:30:27;10.50;61.70
5868;DHT22;2960;49.142;7.768;2024-03-22T05:32:55;10.40;61.60
5868;DHT22;2960;49.142;7.768;2024-03-22T05:35:22;10.40;62.40
5868;DHT22;2960;49.142;7.768;2024-03-22T05:37:48;10.40;62.70
5868;DHT22;2960;49.142;7.768;2024-03-22T05:40:18;10.40;61.70
5868;DHT22;2960;49.142;7.768;2024-03-22T05:42:46;10.40;61.80
5868;DHT22;2960;49.142;7.768;2024-03-22T05:45:15;10.30;61.70
5868;DHT22;2960;49.142;7.768;2024-03-22T05:47:42;10.30;61.70
5868;DHT22;2960;49.142;7.768;2024-03-22T05:50:10;10.30;61.80
5868;DHT22;2960;49.142;7.768;2024-03-22T05:52:36;10.30;61.80
5868;DHT22;2960;49.142;7.768;2024-03-22T05:55:04;10.20;61.70
5868;DHT22;2960;49.142;7.768;2024-03-22T05:57:31;10.20;61.90
5868;DHT22;2960;49.142;7.768;2024-03-22T05:59:58;10.10;61.80
5868;DHT22;2960;49.142;7.768;2024-03-22T06:02:24;10.10;62.70
5868;DHT22;2960;49.142;7.768;2024-03-22T06:04:51;10.10;62.00
5868;DHT22;2960;49.142;7.768;2024-03-22T06:07:18;10.10;62.80
5868;DHT22;2960;49.142;7.768;2024-03-22T06:09:45;10.10;62.90
5868;DHT22;2960;49.142;7.768;2024-03-22T06:12:12;10.10;62.20
5868;DHT22;2960;49.142;7.768;2024-03-22T06:14:43;10.10;62.20
5868;DHT22;2960;49.142;7.768;2024-03-22T06:17:10;10.10;62.20
5868;DHT22;2960;49.142;7.768;2024-03-22T06:19:37;10.20;62.20
5868;DHT22;2960;49.142;7.768;2024-03-22T06:22:03;10.30;62.20
5868;DHT22;2960;49.142;7.768;2024-03-22T06:24:32;10.30;62.10
5868;DHT22;2960;49.142;7.768;2024-03-22T06:26:58;10.40;62.10
5868;DHT22;2960;49.142;7.768;2024-03-22T06:29:25;10.50;62.10
5868;DHT22;2960;49.142;7.768;2024-03-22T06:31:52;10.60;62.10
5868;DHT22;2960;49.142;7.768;2024-03-22T06:34:19;10.70;62.00
5868;DHT22;2960;49.142;7.768;2024-03-22T06:36:45;10.80;61.90
5868;DHT22;2960;49.142;7.768;2024-03-22T06:39:13;10.80;61.90
5868;DHT22;2960;49.142;7.768;2024-03-22T06:41:41;10.90;61.90
5868;DHT22;2960;49.142;7.768;2024-03-22T06:44:08;11.00;62.80
5868;DHT22;2960;49.142;7.768;2024-03-22T06:46:37;11.10;62.10
5868;DHT22;2960;49.142;7.768;2024-03-22T06:49:04;11.30;62.20
5868;DHT22;2960;49.142;7.768;2024-03-22T06:51:31;11.40;62.10
5868;DHT22;2960;49.142;7.768;2024-03-22T06:53:58;11.60;61.90
5868;DHT22;2960;49.142;7.768;2024-03-22T06:56:24;11.70;61.80
5868;DHT22;2960;49.142;7.768;2024-03-22T06:58:52;11.80;61.80
5868;DHT22;2960;49.142;7.768;2024-03-22T07:01:19;11.90;61.70
5868;DHT22;2960;49.142;7.768;2024-03-22T07:03:46;12.00;61.60
5868;DHT22;2960;49.142;7.768;2024-03-22T07:06:14;12.10;61.60
5868;DHT22;2960;49.142;7.768;2024-03-22T07:08:41;12.20;61.60
5868;DHT22;2960;49.142;7.768;2024-03-22T07:11:07;12.30;61.70
5868;DHT22;2960;49.142;7.768;2024-03-22T07:13:34;12.40;62.50
5868;DHT22;2960;49.142;7.768;2024-03-22T07:16:03;12.50;61.60
5868;DHT22;2960;49.142;7.768;2024-03-22T07:18:31;12.60;61.60
5868;DHT22;2960;49.142;7.768;2024-03-22T07:20:57;12.60;61.40
5868;DHT22;2960;49.142;7.768;2024-03-22T07:23:26;12.70;61.50
5868;DHT22;2960;49.142;7.768;2024-03-22T07:25:53;12.80;61.40
5868;DHT22;2960;49.142;7.768;2024-03-22T07:28:20;12.80;61.30
5868;DHT22;2960;49.142;7.768;2024-03-22T07:30:47;12.90;61.30
5868;DHT22;2960;49.142;7.768;2024-03-22T07:33:15;13.00;61.30
5868;DHT22;2960;49.142;7.768;2024-03-22T07:35:43;13.00;61.10
5868;DHT22;2960;49.142;7.768;2024-03-22T07:38:10;13.00;61.10
5868;DHT22;2960;49.142;7.768;2024-03-22T07:40:36;13.10;61.20
5868;DHT22;2960;49.142;7.768;2024-03-22T07:43:04;13.10;61.10
5868;DHT22;2960;49.142;7.768;2024-03-22T07:45:34;13.20;61.10
5868;DHT22;2960;49.142;7.768;2024-03-22T07:48:01;13.20;61.10
5868;DHT22;2960;49.142;7.768;2024-03-22T07:50:29;13.30;61.10
5868;DHT22;2960;49.142;7.768;2024-03-22T07:52:56;13.30;61.00
5868;DHT22;2960;49.142;7.768;2024-03-22T07:55:22;13.30;61.00
5868;DHT22;2960;49.142;7.768;2024-03-22T07:57:50;13.40;61.10
5868;DHT22;2960;49.142;7.768;2024-03-22T08:00:16;13.40;60.90
5868;DHT22;2960;49.142;7.768;2024-03-22T08:02:44;13.40;60.90
5868;DHT22;2960;49.142;7.768;2024-03-22T08:05:10;13.50;60.90
5868;DHT22;2960;49.142;7.768;2024-03-22T08:07:39;13.50;60.90
5868;DHT22;2960;49.142;7.768;2024-03-22T08:10:05;13.50;60.90
5868;DHT22;2960;49.142;7.768;2024-03-22T08:12:33;13.50;60.80
5868;DHT22;2960;49.142;7.768;2024-03-22T08:14:59;13.50;60.70
5868;DHT22;2960;49.142;7.768;2024-03-22T08:17:26;13.60;61.00
5868;DHT22;2960;49.142;7.768;2024-03-22T08:19:52;13.60;60.80
5868;DHT22;2960;49.142;7.768;2024-03-22T08:22:19;13.60;60.80
5868;DHT22;2960;49.142;7.768;2024-03-22T08:24:48;13.70;60.90
5868;DHT22;2960;49.142;7.768;2024-03-22T08:27:15;13.70;60.80
5868;DHT22;2960;49.142;7.768;2024-03-22T08:29:41;13.70;61.60
5868;DHT22;2960;49.142;7.768;2024-03-22T08:32:08;13.80;60.80
5868;DHT22;2960;49.142;7.768;2024-03-22T08:34:34;13.80;60.70
5868;DHT22;2960;49.142;7.768;2024-03-22T08:37:01;13.90;60.80
5868;DHT22;2960;49.142;7.768;2024-03-22T08:39:29;13.90;60.80
5868;DHT22;2960;49.142;7.768;2024-03-22T08:41:58;14.00;60.80
5868;DHT22;2960;49.142;7.768;2024-03-22T08:44:24;14.00;60.70
5868;DHT22;2960;49.142;7.768;2024-03-22T08:46:52;14.00;60.70
5868;DHT22;2960;49.142;7.768;2024-03-22T08:49:18;14.10;60.70
5868;DHT22;2960;49.142;7.768;2024-03-22T08:51:45;14.10;60.60
5868;DHT22;2960;49.142;7.768;2024-03-22T08:54:11;14.20;60.60
5868;DHT22;2960;49.142;7.768;2024-03-22T08:56:39;14.20;60.50
5868;DHT22;2960;49.142;7.768;2024-03-22T08:59:06;14.20;60.40
5868;DHT22;2960;49.142;7.768;2024-03-22T09:01:33;14.20;60.40
5868;DHT22;2960;49.142;7.768;2024-03-22T09:04:00;14.30;61.20
5868;DHT22;2960;49.142;7.768;2024-03-22T09:06:27;14.30;60.50
5868;DHT22;2960;49.142;7.768;2024-03-22T09:08:54;14.40;60.50
5868;DHT22;2960;49.142;7.768;2024-03-22T09:11:23;14.40;60.40
5868;DHT22;2960;49.142;7.768;2024-03-22T09:13:51;14.40;60.50
5868;DHT22;2960;49.142;7.768;2024-03-22T09:16:20;14.50;60.50
5868;DHT22;2960;49.142;7.768;2024-03-22T09:18:46;14.50;61.20
5868;DHT22;2960;49.142;7.768;2024-03-22T09:21:14;14.50;60.40
5868;DHT22;2960;49.142;7.768;2024-03-22T09:23:40;14.60;60.50
5868;DHT22;2960;49.142;7.768;2024-03-22T09:26:07;14.60;60.50
5868;DHT22;2960;49.142;7.768;2024-03-22T09:28:33;14.60;60.40
5868;DHT22;2960;49.142;7.768;2024-03-22T09:31:03;14.60;60.40
5868;DHT22;2960;49.142;7.768;2024-03-22T09:33:32;14.70;60.50
5868;DHT22;2960;49.142;7.768;2024-03-22T09:36:00;14.70;60.40
5868;DHT22;2960;49.142;7.768;2024-03-22T09:38:26;14.80;60.50
5868;DHT22;2960;49.142;7.768;2024-03-22T09:40:53;14.80;61.30
5868;DHT22;2960;49.142;7.768;2024-03-22T09:43:20;14.90;60.60
5868;DHT22;2960;49.142;7.768;2024-03-22T09:45:49;14.90;60.60
5868;DHT22;2960;49.142;7.768;2024-03-22T09:48:17;14.90;60.50
5868;DHT22;2960;49.142;7.768;2024-03-22T09:50:46;14.90;60.50
5868;DHT22;2960;49.142;7.768;2024-03-22T09:53:13;15.00;60.50
5868;DHT22;2960;49.142;7.768;2024-03-22T09:55:41;15.00;60.50
5868;DHT22;2960;49.142;7.768;2024-03-22T09:58:10;15.00;60.50
5868;DHT22;2960;49.142;7.768;2024-03-22T10:00:37;15.00;60.50
5868;DHT22;2960;49.142;7.768;2024-03-22T10:03:04;15.10;60.50
5868;DHT22;2960;49.142;7.768;2024-03-22T10:05:31;15.10;60.50
5868;DHT22;2960;49.142;7.768;2024-03-22T10:07:59;15.10;60.50
5868;DHT22;2960;49.142;7.768;2024-03-22T10:10:27;15.20;60.60
5868;DHT22;2960;49.142;7.768;2024-03-22T10:12:53;15.20;60.50
5868;DHT22;2960;49.142;7.768;2024-03-22T10:15:20;15.30;60.50
5868;DHT22;2960;49.142;7.768;2024-03-22T10:17:46;15.30;60.60
5868;DHT22;2960;49.142;7.768;2024-03-22T10:20:14;15.40;60.60
5868;DHT22;2960;49.142;7.768;2024-03-22T10:22:42;15.50;60.40
5868;DHT22;2960;49.142;7.768;2024-03-22T10:25:10;15.50;60.20
5868;DHT22;2960;49.142;7.768;2024-03-22T10:27:39;15.50;59.90
5868;DHT22;2960;49.142;7.768;2024-03-22T10:30:09;15.60;59.90
5868;DHT22;2960;49.142;7.768;2024-03-22T10:32:36;15.60;59.70
5868;DHT22;2960;49.142;7.768;2024-03-22T10:35:03;15.70;59.70
5868;DHT22;2960;49.142;7.768;2024-03-22T10:37:32;15.70;59.50
5868;DHT22;2960;49.142;7.768;2024-03-22T10:40:01;15.70;59.50
5868;DHT22;2960;49.142;7.768;2024-03-22T10:42:34;15.70;59.40
5868;DHT22;2960;49.142;7.768;2024-03-22T10:45:03;15.80;59.50
5868;DHT22;2960;49.142;7.768;2024-03-22T10:47:31;15.80;59.40
5868;DHT22;2960;49.142;7.768;2024-03-22T10:50:04;15.80;59.30
5868;DHT22;2960;49.142;7.768;2024-03-22T10:52:33;15.90;59.30
5868;DHT22;2960;49.142;7.768;2024-03-22T10:55:04;15.90;59.20
5868;DHT22;2960;49.142;7.768;2024-03-22T10:57:35;16.00;59.10
5868;DHT22;2960;49.142;7.768;2024-03-22T11:00:04;16.10;59.20
5868;DHT22;2960;49.142;7.768;2024-03-22T11:02:35;16.20;59.20
5868;DHT22;2960;49.142;7.768;2024-03-22T11:05:03;16.40;59.70
5868;DHT22;2960;49.142;7.768;2024-03-22T11:07:30;16.50;58.80
5868;DHT22;2960;49.142;7.768;2024-03-22T11:09:57;16.60;58.70
5868;DHT22;2960;49.142;7.768;2024-03-22T11:12:25;16.60;58.70
5868;DHT22;2960;49.142;7.768;2024-03-22T11:14:55;16.70;58.60
5868;DHT22;2960;49.142;7.768;2024-03-22T11:17:21;16.80;58.50
5868;DHT22;2960;49.142;7.768;2024-03-22T11:19:50;16.80;58.30
5868;DHT22;2960;49.142;7.768;2024-03-22T11:22:17;17.00;58.40
5868;DHT22;2960;49.142;7.768;2024-03-22T11:24:44;17.10;58.40
5868;DHT22;2960;49.142;7.768;2024-03-22T11:27:11;17.30;58.30
5868;DHT22;2960;49.142;7.768;2024-03-22T11:29:39;17.50;58.10
5868;DHT22;2960;49.142;7.768;2024-03-22T11:32:08;17.70;57.90
5868;DHT22;2960;49.142;7.768;2024-03-22T11:34:39;17.80;57.70
5868;DHT22;2960;49.142;7.768;2024-03-22T11:37:07;17.90;57.50
5868;DHT22;2960;49.142;7.768;2024-03-22T11:39:36;18.10;57.50
5868;DHT22;2960;49.142;7.768;2024-03-22T11:42:02;18.10;57.10
5868;DHT22;2960;49.142;7.768;2024-03-22T11:44:32;18.30;56.90
5868;DHT22;2960;49.142;7.768;2024-03-22T11:46:58;18.40;56.70
5868;DHT22;2960;49.142;7.768;2024-03-22T11:49:27;18.50;56.50
5868;DHT22;2960;49.142;7.768;2024-03-22T11:51:53;18.60;56.40
5868;DHT22;2960;49.142;7.768;2024-03-22T11:54:22;18.80;56.50
5868;DHT22;2960;49.142;7.768;2024-03-22T11:56:49;18.80;56.10
5868;DHT22;2960;49.142;7.768;2024-03-22T11:59:19;19.00;55.90
5868;DHT22;2960;49.142;7.768;2024-03-22T12:01:46;19.10;55.70
5868;DHT22;2960;49.142;7.768;2024-03-22T12:04:13;19.20;55.60
5868;DHT22;2960;49.142;7.768;2024-03-22T12:06:42;19.30;55.60
5868;DHT22;2960;49.142;7.768;2024-03-22T12:09:10;19.50;55.30
5868;DHT22;2960;49.142;7.768;2024-03-22T12:11:38;19.70;54.70
5868;DHT22;2960;49.142;7.768;2024-03-22T12:14:06;19.80;54.20
5868;DHT22;2960;49.142;7.768;2024-03-22T12:16:32;19.90;54.10
5868;DHT22;2960;49.142;7.768;2024-03-22T12:18:59;19.90;54.10
5868;DHT22;2960;49.142;7.768;2024-03-22T12:21:25;20.00;53.80
5868;DHT22;2960;49.142;7.768;2024-03-22T12:23:54;20.10;53.90
5868;DHT22;2960;49.142;7.768;2024-03-22T12:26:20;20.10;53.80
5868;DHT22;2960;49.142;7.768;2024-03-22T12:28:47;20.20;53.50
5868;DHT22;2960;49.142;7.768;2024-03-22T12:31:16;20.20;53.40
5868;DHT22;2960;49.142;7.768;2024-03-22T12:33:44;20.30;53.20
5868;DHT22;2960;49.142;7.768;2024-03-22T12:36:11;20.30;52.50
5868;DHT22;2960;49.142;7.768;2024-03-22T12:38:42;20.30;52.80
5868;DHT22;2960;49.142;7.768;2024-03-22T12:41:10;20.40;51.90
5868;DHT22;2960;49.142;7.768;2024-03-22T12:43:40;20.40;51.60
5868;DHT22;2960;49.142;7.768;2024-03-22T12:46:08;20.30;51.50
5868;DHT22;2960;49.142;7.768;2024-03-22T12:48:35;20.30;50.90
5868;DHT22;2960;49.142;7.768;2024-03-22T12:51:02;20.20;50.70
5868;DHT22;2960;49.142;7.768;2024-03-22T12:53:29;20.20;50.60
5868;DHT22;2960;49.142;7.768;2024-03-22T12:55:55;20.20;50.70
5868;DHT22;2960;49.142;7.768;2024-03-22T12:58:24;20.20;50.60
5868;DHT22;2960;49.142;7.768;2024-03-22T13:00:50;20.20;50.50
5868;DHT22;2960;49.142;7.768;2024-03-22T13:03:17;20.30;50.20
5868;DHT22;2960;49.142;7.768;2024-03-22T13:05:43;20.20;50.20
5868;DHT22;2960;49.142;7.768;2024-03-22T13:08:11;20.20;50.30
5868;DHT22;2960;49.142;7.768;2024-03-22T13:10:37;20.20;50.30
5868;DHT22;2960;49.142;7.768;2024-03-22T13:13:08;20.30;50.40
5868;DHT22;2960;49.142;7.768;2024-03-22T13:15:36;20.30;50.20
5868;DHT22;2960;49.142;7.768;2024-03-22T13:18:03;20.30;50.10
5868;DHT22;2960;49.142;7.768;2024-03-22T13:20:30;20.30;50.00
5868;DHT22;2960;49.142;7.768;2024-03-22T13:22:57;20.30;49.60
5868;DHT22;2960;49.142;7.768;2024-03-22T13:25:24;20.30;49.10
5868;DHT22;2960;49.142;7.768;2024-03-22T13:27:51;20.20;49.00
5868;DHT22;2960;49.142;7.768;2024-03-22T13:30:17;20.10;48.90
5868;DHT22;2960;49.142;7.768;2024-03-22T13:32:46;20.10;48.80
5868;DHT22;2960;49.142;7.768;2024-03-22T13:35:12;20.00;48.80
5868;DHT22;2960;49.142;7.768;2024-03-22T13:37:40;19.90;48.90
5868;DHT22;2960;49.142;7.768;2024-03-22T13:40:07;19.90;49.10
5868;DHT22;2960;49.142;7.768;2024-03-22T13:42:35;19.90;49.20
5868;DHT22;2960;49.142;7.768;2024-03-22T13:45:02;19.90;49.40
5868;DHT22;2960;49.142;7.768;2024-03-22T13:47:29;19.90;49.40
5868;DHT22;2960;49.142;7.768;2024-03-22T13:50:00;19.90;49.00
5868;DHT22;2960;49.142;7.768;2024-03-22T13:52:26;19.90;49.10
5868;DHT22;2960;49.142;7.768;2024-03-22T13:54:53;19.90;49.00
5868;DHT22;2960;49.142;7.768;2024-03-22T13:57:19;19.90;49.10
5868;DHT22;2960;49.142;7.768;2024-03-22T13:59:47;19.90;49.10
5868;DHT22;2960;49.142;7.768;2024-03-22T14:02:13;19.90;49.70
5868;DHT22;2960;49.142;7.768;2024-03-22T14:04:40;19.80;49.00
5868;DHT22;2960;49.142;7.768;2024-03-22T14:07:07;19.80;49.00
5868;DHT22;2960;49.142;7.768;2024-03-22T14:09:35;19.80;49.00
5868;DHT22;2960;49.142;7.768;2024-03-22T14:12:02;19.80;48.80
5868;DHT22;2960;49.142;7.768;2024-03-22T14:14:29;19.80;48.50
5868;DHT22;2960;49.142;7.768;2024-03-22T14:16:55;19.80;48.50
5868;DHT22;2960;49.142;7.768;2024-03-22T14:19:22;19.80;49.10
5868;DHT22;2960;49.142;7.768;2024-03-22T14:21:49;19.80;48.50
5868;DHT22;2960;49.142;7.768;2024-03-22T14:24:18;19.80;48.40
5868;DHT22;2960;49.142;7.768;2024-03-22T14:26:44;19.80;48.40
5868;DHT22;2960;49.142;7.768;2024-03-22T14:29:11;19.80;48.10
5868;DHT22;2960;49.142;7.768;2024-03-22T14:31:38;19.80;48.00
5868;DHT22;2960;49.142;7.768;2024-03-22T14:34:08;19.70;47.90
5868;DHT22;2960;49.142;7.768;2024-03-22T14:36:35;19.70;48.00
5868;DHT22;2960;49.142;7.768;2024-03-22T14:39:02;19.70;48.00
5868;DHT22;2960;49.142;7.768;2024-03-22T14:41:32;19.60;48.00
5868;DHT22;2960;49.142;7.768;2024-03-22T14:43:59;19.60;48.00
5868;DHT22;2960;49.142;7.768;2024-03-22T14:46:26;19.60;48.00
5868;DHT22;2960;49.142;7.768;2024-03-22T14:48:54;19.60;48.20
5868;DHT22;2960;49.142;7.768;2024-03-22T14:51:21;19.60;48.40
5868;DHT22;2960;49.142;7.768;2024-03-22T14:53:48;19.60;48.20
5868;DHT22;2960;49.142;7.768;2024-03-22T14:56:14;19.60;48.00
5868;DHT22;2960;49.142;7.768;2024-03-22T14:58:45;19.50;48.00
5868;DHT22;2960;49.142;7.768;2024-03-22T15:01:11;19.50;48.00
5868;DHT22;2960;49.142;7.768;2024-03-22T15:03:38;19.50;48.10
5868;DHT22;2960;49.142;7.768;2024-03-22T15:06:04;19.50;48.00
5868;DHT22;2960;49.142;7.768;2024-03-22T15:08:31;19.50;48.20
5868;DHT22;2960;49.142;7.768;2024-03-22T15:10:58;19.40;48.20
5868;DHT22;2960;49.142;7.768;2024-03-22T15:13:25;19.40;48.30
5868;DHT22;2960;49.142;7.768;2024-03-22T15:15:57;19.50;48.40
5868;DHT22;2960;49.142;7.768;2024-03-22T15:18:25;19.50;48.50
5868;DHT22;2960;49.142;7.768;2024-03-22T15:20:52;19.50;48.30
5868;DHT22;2960;49.142;7.768;2024-03-22T15:23:20;19.50;48.40
5868;DHT22;2960;49.142;7.768;2024-03-22T15:25:47;19.40;48.50
5868;DHT22;2960;49.142;7.768;2024-03-22T15:28:15;19.40;48.60
5868;DHT22;2960;49.142;7.768;2024-03-22T15:30:41;19.40;48.70
5868;DHT22;2960;49.142;7.768;2024-03-22T15:33:11;19.50;49.40
5868;DHT22;2960;49.142;7.768;2024-03-22T15:35:38;19.50;48.70
5868;DHT22;2960;49.142;7.768;2024-03-22T15:38:07;19.50;48.80
5868;DHT22;2960;49.142;7.768;2024-03-22T15:40:34;19.50;48.70
5868;DHT22;2960;49.142;7.768;2024-03-22T15:43:01;19.60;48.80
5868;DHT22;2960;49.142;7.768;2024-03-22T15:45:32;19.60;48.70
5868;DHT22;2960;49.142;7.768;2024-03-22T15:47:59;19.60;49.20
5868;DHT22;2960;49.142;7.768;2024-03-22T15:50:27;19.70;48.70
5868;DHT22;2960;49.142;7.768;2024-03-22T15:52:55;19.70;48.50
5868;DHT22;2960;49.142;7.768;2024-03-22T15:55:21;19.70;48.30
5868;DHT22;2960;49.142;7.768;2024-03-22T15:57:49;19.60;48.30
5868;DHT22;2960;49.142;7.768;2024-03-22T16:00:20;19.60;48.40
5868;DHT22;2960;49.142;7.768;2024-03-22T16:02:48;19.50;48.30